M/V C0sta Favolosa — ICPK — position and weather

sailwx.info

Track history (hours):
 
Tides and Currents Weather Stations Pressure Air Temp Water Temp Dewpoint Dewpoint Depression Visibility Wind Speed Wind Dir Waves Ship Positions

M/V C0sta Favolosa

Last reported at 2019-Jul-22 14:30 UTC. Time now 2019-Jul-22 14:33 UTC.
Position N 62°07' E 007°11'.

Length 289 m; draft 8.3 m.

Type: Passenger vessel. MMSI: 247311100.

Date/timePositionNaut miles runAvg speedWind from/ knotsBaromVisibWave heightAir tempDewpointWater temp
2019-Jul-22 14:30N 62°07' E 007°11'0 0.0
2019-Jul-22 14:00N 62°07' E 007°11'0 0.0
2019-Jul-22 13:30N 62°07' E 007°11'0 0.0
2019-Jul-22 13:00N 62°07' E 007°11'0 0.0
2019-Jul-22 12:30N 62°07' E 007°11'0 0.0
2019-Jul-22 12:00N 62°07' E 007°11'0 0.0
2019-Jul-22 11:30N 62°07' E 007°11'0 0.0
2019-Jul-22 11:00N 62°07' E 007°11'0 0.0
2019-Jul-22 10:30N 62°07' E 007°11'0 0.0
2019-Jul-22 09:59N 62°07' E 007°11'0 0.0
2019-Jul-22 09:30N 62°07' E 007°11'0 0.0
2019-Jul-22 09:00N 62°07' E 007°11'0 0.0
2019-Jul-22 08:30N 62°07' E 007°11'0 0.1
2019-Jul-22 08:00N 62°07' E 007°11'3 6.2
2019-Jul-22 07:30N 62°06' E 007°05'611.2
2019-Jul-22 07:00N 62°05' E 006°53'0 0.8
2019-Jul-22 06:26N 62°05' E 006°53'0 0.0
2019-Jul-22 05:59N 62°05' E 006°53'0 0.0
2019-Jul-22 05:29N 62°05' E 006°53'1 1.0
2019-Jul-22 05:00N 62°06' E 006°53'4 7.1
2019-Jul-22 04:29N 62°08' E 006°58'612.0
2019-Jul-22 04:00N 62°14' E 007°01'612.0
2019-Jul-22 03:30N 62°20' E 006°57'612.1
2019-Jul-22 03:00N 62°26' E 006°54'713.1
2019-Jul-22 02:30N 62°27' E 006°40'714.2
2019-Jul-22 02:00N 62°25' E 006°26'714.2
2019-Jul-22 01:30N 62°23' E 006°11'612.5
2019-Jul-22 01:00N 62°26' E 005°59'611.8
2019-Jul-22 00:30N 62°29' E 005°48'816.8
2019-Jul-22 00:00N 62°28' E 005°30'918.8
2019-Jul-21 23:30N 62°24' E 005°12'1019.2
2019-Jul-21 23:00N 62°19' E 004°55'1019.0
2019-Jul-21 22:30N 62°12' E 004°41'1019.0
2019-Jul-21 22:00N 62°08' E 004°21'918.0
2019-Jul-21 21:30N 62°01' E 004°10'1019.0
2019-Jul-21 21:00N 61°51' E 004°11'918.8
2019-Jul-21 20:30N 61°42' E 004°12'1019.6
2019-Jul-21 20:00N 61°32' E 004°12'1019.8
2019-Jul-21 19:30N 61°23' E 004°12'1020.0
2019-Jul-21 19:00N 61°12' E 004°12'1019.8
2019-Jul-21 18:30N 61°03' E 004°12'1019.6
2019-Jul-21 18:00N 60°53' E 004°11'1019.6
2019-Jul-21 17:30N 60°43' E 004°11'1019.6
2019-Jul-21 17:00N 60°33' E 004°11'1019.6
2019-Jul-21 16:30N 60°23' E 004°11'1019.5
2019-Jul-21 16:00N 60°14' E 004°11'919.4
2019-Jul-21 15:30N 60°04' E 004°13'1019.5
2019-Jul-21 15:00N 59°54' E 004°14'1019.2
2019-Jul-21 14:30N 59°45' E 004°12'1019.4
2019-Jul-21 14:00N 59°35' E 004°10'1019.1
2019-Jul-21 13:30N 59°25' E 004°09'918.8
2019-Jul-21 13:00N 59°16' E 004°11'918.6
2019-Jul-21 12:30N 59°07' E 004°12'1018.6
2019-Jul-21 12:00N 58°58' E 004°15'1018.9
2019-Jul-21 11:29N 58°50' E 004°26'918.7
2019-Jul-21 11:00N 58°43' E 004°38'918.7
2019-Jul-21 10:30N 58°37' E 004°51'918.7
2019-Jul-21 10:00N 58°31' E 005°05'918.5
2019-Jul-21 09:30N 58°25' E 005°18'918.9
2019-Jul-21 09:00N 58°18' E 005°31'918.4
2019-Jul-21 08:30N 58°12' E 005°44'918.5
2019-Jul-21 08:00N 58°06' E 005°57'1019.1
2019-Jul-21 07:30N 57°59' E 006°10'918.9
2019-Jul-21 07:00N 57°53' E 006°24'1018.9
2019-Jul-21 06:30N 57°48' E 006°39'918.7
2019-Jul-21 06:00N 57°47' E 006°56'1018.9
2019-Jul-21 05:30N 57°47' E 007°14'918.9
2019-Jul-21 05:00N 57°46' E 007°31'919.1
2019-Jul-21 04:31N 57°46' E 007°49'1019.4
2019-Jul-21 04:00N 57°47' E 008°07'1019.6
2019-Jul-21 03:30N 57°47' E 008°26'1019.5
2019-Jul-21 03:00N 57°47' E 008°44'1019.5
2019-Jul-21 02:30N 57°48' E 009°03'919.0
2019-Jul-21 02:00N 57°48' E 009°20'918.7
2019-Jul-21 01:30N 57°49' E 009°38'918.8
2019-Jul-21 01:00N 57°49' E 009°56'918.8
2019-Jul-21 00:30N 57°50' E 010°13'918.4
2019-Jul-21 00:00N 57°50' E 010°30'918.4
2019-Jul-20 23:31N 57°48' E 010°47'918.6
2019-Jul-20 23:00N 57°43' E 011°01'919.0
2019-Jul-20 22:31N 57°36' E 011°12'1019.3
2019-Jul-20 22:00N 57°29' E 011°26'1019.8
2019-Jul-20 21:31N 57°20' E 011°32'1019.5
2019-Jul-20 21:01N 57°11' E 011°38'1018.9
2019-Jul-20 20:30N 57°02' E 011°44'1019.3
2019-Jul-20 20:00N 56°53' E 011°50'1019.0
2019-Jul-20 19:29N 56°43' E 011°56'919.2
2019-Jul-20 19:00N 56°34' E 011°59'1019.4
2019-Jul-20 18:30N 56°25' E 012°03'1119.2
2019-Jul-20 17:55N 56°15' E 012°13'818.9
2019-Jul-20 17:30N 56°10' E 012°25'918.7
2019-Jul-20 17:00N 56°04' E 012°38'816.7
2019-Jul-20 16:30N 55°57' E 012°43'918.2
2019-Jul-20 16:00N 55°48' E 012°43'611.2
2019-Jul-20 15:30N 55°43' E 012°38'0 0.1
2019-Jul-20 15:00N 55°43' E 012°38'0 0.0
2019-Jul-20 14:30N 55°43' E 012°38'0 0.0
2019-Jul-20 14:00N 55°43' E 012°38'0 0.0
2019-Jul-20 13:30N 55°43' E 012°38'0 0.0
2019-Jul-20 13:00N 55°43' E 012°38'0 0.0
2019-Jul-20 12:30N 55°43' E 012°38'0 0.0
2019-Jul-20 11:59N 55°43' E 012°38'0 0.0
2019-Jul-20 11:26N 55°43' E 012°38'0 0.0
2019-Jul-20 10:59N 55°43' E 012°38'0 0.0
2019-Jul-20 10:29N 55°43' E 012°38'0 0.0
2019-Jul-20 09:59N 55°43' E 012°38'0 0.0
2019-Jul-20 09:29N 55°43' E 012°38'0 0.0
2019-Jul-20 08:59N 55°43' E 012°38'0 0.0
2019-Jul-20 08:29N 55°43' E 012°38'0 0.0
2019-Jul-20 07:59N 55°43' E 012°38'0 0.0
2019-Jul-20 07:26N 55°43' E 012°38'0 0.0
2019-Jul-20 06:59N 55°43' E 012°38'0 0.0
2019-Jul-20 06:29N 55°43' E 012°38'0 0.1
2019-Jul-20 06:01N 55°43' E 012°38'1 2.0
2019-Jul-20 05:31N 55°44' E 012°39'4 7.7
2019-Jul-20 05:01N 55°47' E 012°42'612.6
2019-Jul-20 04:30N 55°53' E 012°40'714.1
2019-Jul-20 04:00N 56°00' E 012°40'815.9
2019-Jul-20 03:31N 56°06' E 012°32'816.8
2019-Jul-20 03:01N 56°11' E 012°19'816.1
2019-Jul-20 02:30N 56°11' E 012°05'917.9
2019-Jul-20 02:00N 56°09' E 011°49'918.0
2019-Jul-20 01:30N 56°08' E 011°33'917.9
2019-Jul-20 01:01N 56°08' E 011°17'917.0
2019-Jul-20 00:30N 56°02' E 011°06'1019.1
2019-Jul-20 00:00N 55°54' E 010°56'2617.5
2019-Jul-19 22:32N 55°28' E 010°55'119.0
2019-Jul-19 22:30N 55°28' E 010°56'917.8
2019-Jul-19 21:58N 55°19' E 011°03'818.4
2019-Jul-19 21:30N 55°11' E 011°04'1021.0
2019-Jul-19 21:01N 55°00' E 011°02'1019.7
2019-Jul-19 20:30N 54°52' E 010°53'918.4
2019-Jul-19 20:01N 54°43' E 010°53'918.2
2019-Jul-19 19:31N 54°38' E 011°07'918.6
2019-Jul-19 19:01N 54°34' E 011°21'918.4
2019-Jul-19 18:31N 54°29' E 011°35'918.4
2019-Jul-19 18:01N 54°25' E 011°49'918.2
2019-Jul-19 17:31N 54°19' E 012°00'713.6
2019-Jul-19 16:59N 54°12' E 012°05'2 1.0
2019-Jul-19 15:21N 54°11' E 012°06'0 0.0
2019-Jul-19 14:15N 54°11' E 012°06'0 0.0
2019-Jul-19 10:33N 54°11' E 012°06'0 0.0
2019-Jul-19 10:30N 54°11' E 012°06'0 0.0
2019-Jul-19 09:48N 54°11' E 012°06'0 0.0
2019-Jul-19 09:21N 54°11' E 012°06'0 0.0
2019-Jul-19 09:00N 54°11' E 012°06'0 0.0
2019-Jul-19 08:30N 54°11' E 012°06'0 0.0
2019-Jul-19 08:00N 54°11' E 012°06'0 0.0
2019-Jul-19 07:27N 54°11' E 012°06'0 0.0
2019-Jul-19 06:51N 54°11' E 012°06'0 0.0
2019-Jul-19 06:24N 54°11' E 012°06'0 0.0
2019-Jul-19 06:00N 54°11' E 012°06'1 2.0
2019-Jul-19 05:27N 54°10' E 012°06'3 5.8
2019-Jul-19 05:00N 54°12' E 012°05'5 9.4
2019-Jul-19 04:30N 54°16' E 012°01'816.5
2019-Jul-19 04:00N 54°22' E 011°51'1019.7
2019-Jul-19 03:30N 54°27' E 011°37'1019.7
2019-Jul-19 03:01N 54°32' E 011°22'1019.3
2019-Jul-19 02:31N 54°36' E 011°07'1019.0
2019-Jul-19 02:00N 54°41' E 010°53'917.8
2019-Jul-19 01:30N 54°50' E 010°52'816.7
2019-Jul-19 01:01N 54°58' E 010°58'917.7
2019-Jul-19 00:31N 55°06' E 011°02'917.6
2019-Jul-19 00:00N 55°15' E 011°05'918.7
2019-Jul-18 23:30N 55°24' E 010°60'1019.5
2019-Jul-18 23:00N 55°32' E 010°51'1018.9
2019-Jul-18 22:29N 55°41' E 010°46'919.1
2019-Jul-18 22:00N 55°50' E 010°50'1019.6
2019-Jul-18 21:30N 55°58' E 011°01'1019.9
2019-Jul-18 20:59N 56°07' E 011°10'2120.1
2019-Jul-18 19:57N 56°24' E 011°31'1320.3
2019-Jul-18 19:18N 56°35' E 011°44'620.6
2019-Jul-18 19:01N 56°41' E 011°48'1019.1
2019-Jul-18 18:31N 56°50' E 011°48'1020.4
2019-Jul-18 18:00N 57°00' E 011°42'1020.7
2019-Jul-18 17:30N 57°10' E 011°36'1019.7
2019-Jul-18 17:01N 57°20' E 011°33'1020.5
2019-Jul-18 16:31N 57°30' E 011°36'815.0
2019-Jul-18 16:00N 57°37' E 011°40'5 9.7
2019-Jul-18 15:31N 57°41' E 011°46'3 5.2
2019-Jul-18 14:58N 57°41' E 011°51'0 0.0
2019-Jul-18 14:28N 57°41' E 011°51'0 0.0
2019-Jul-18 13:58N 57°41' E 011°51'0 0.0
2019-Jul-18 13:28N 57°41' E 011°51'0 0.0
2019-Jul-18 12:58N 57°41' E 011°51'0 0.0
2019-Jul-18 12:28N 57°41' E 011°51'0 0.0
2019-Jul-18 11:58N 57°41' E 011°51'0 0.0
2019-Jul-18 11:28N 57°41' E 011°51'0 0.0
2019-Jul-18 10:58N 57°41' E 011°51'0 0.0
2019-Jul-18 10:28N 57°41' E 011°51'300654.3
2019-Jul-18 10:00N 62°07' E 007°11'300553.3
2019-Jul-18 09:28N 57°41' E 011°51'0 0.0
2019-Jul-18 08:58N 57°41' E 011°51'0 0.0
2019-Jul-18 08:28N 57°41' E 011°51'0 0.0
2019-Jul-18 08:00N 57°41' E 011°51'0 0.6
2019-Jul-18 07:30N 57°41' E 011°51'3 6.9
2019-Jul-18 07:00N 57°41' E 011°44'510.2
2019-Jul-18 06:30N 57°37' E 011°38'612.6
2019-Jul-18 06:00N 57°38' E 011°27'612.7
2019-Jul-18 05:31N 57°41' E 011°17'815.7
2019-Jul-18 05:01N 57°46' E 011°04'918.2
2019-Jul-18 04:31N 57°50' E 010°50'1019.0
2019-Jul-18 04:01N 57°53' E 010°33'1020.4
2019-Jul-18 03:30N 57°52' E 010°14'1019.6
2019-Jul-18 03:01N 57°50' E 009°55'1019.4
2019-Jul-18 02:31N 57°49' E 009°37'1019.6
2019-Jul-18 02:00N 57°47' E 009°19'1019.9
2019-Jul-18 01:31N 57°46' E 009°01'1020.2
2019-Jul-18 01:01N 57°45' E 008°42'1020.0
2019-Jul-18 00:31N 57°44' E 008°23'1019.6
2019-Jul-18 00:01N 57°43' E 008°05'1019.6
2019-Jul-17 23:31N 57°42' E 007°47'1019.4
2019-Jul-17 23:01N 57°43' E 007°29'1019.3
2019-Jul-17 22:30N 57°43' E 007°11'1019.0
2019-Jul-17 22:00N 57°43' E 006°53'1019.2
2019-Jul-17 21:30N 57°44' E 006°35'1019.0
2019-Jul-17 20:59N 57°49' E 006°20'918.7
2019-Jul-17 20:30N 57°55' E 006°07'919.0
2019-Jul-17 20:00N 58°01' E 005°53'1019.1
2019-Jul-17 19:30N 58°08' E 005°39'1019.1
2019-Jul-17 19:00N 58°14' E 005°26'1019.2
2019-Jul-17 18:30N 58°21' E 005°13'918.8
2019-Jul-17 18:00N 58°30' E 005°15'918.9
2019-Jul-17 17:30N 58°39' E 005°16'917.9
2019-Jul-17 17:00N 58°48' E 005°19'816.0
2019-Jul-17 16:30N 58°53' E 005°31'815.5
2019-Jul-17 16:00N 59°01' E 005°33'4 8.0
2019-Jul-17 15:30N 59°01' E 005°40'3 5.1
2019-Jul-17 14:59N 58°58' E 005°44'0 0.0
2019-Jul-17 14:29N 58°58' E 005°44'0 0.0
2019-Jul-17 13:59N 58°58' E 005°44'0 0.0
2019-Jul-17 13:29N 58°58' E 005°44'0 0.0
2019-Jul-17 12:59N 58°58' E 005°44'0 0.0
2019-Jul-17 12:29N 58°58' E 005°44'0 0.0
2019-Jul-17 11:59N 58°58' E 005°44'0 0.0
2019-Jul-17 11:29N 58°58' E 005°44'0 0.0
2019-Jul-17 10:59N 58°58' E 005°44'0 0.0
2019-Jul-17 10:29N 58°58' E 005°44'0 0.0
2019-Jul-17 09:59N 58°58' E 005°44'0 0.0
2019-Jul-17 09:29N 58°58' E 005°44'0 0.0
2019-Jul-17 08:59N 58°58' E 005°44'0 0.0
2019-Jul-17 08:29N 58°58' E 005°44'0 0.0
2019-Jul-17 07:59N 58°58' E 005°44'0 0.0
2019-Jul-17 07:29N 58°58' E 005°44'0 0.0
2019-Jul-17 06:59N 58°58' E 005°44'0 0.0
2019-Jul-17 06:29N 58°58' E 005°44'0 0.0
2019-Jul-17 05:59N 58°58' E 005°44'0 0.1
2019-Jul-17 05:30N 58°59' E 005°44'1 2.9
2019-Jul-17 05:00N 58°60' E 005°42'5 9.0
2019-Jul-17 04:30N 59°03' E 005°36'511.0
2019-Jul-17 04:00N 59°06' E 005°28'5 9.5
2019-Jul-17 03:30N 59°04' E 005°19'611.8
2019-Jul-17 03:00N 59°01' E 005°09'611.2
2019-Jul-17 02:30N 59°03' E 004°59'713.4
2019-Jul-17 02:00N 59°07' E 004°49'713.6
2019-Jul-17 01:30N 59°11' E 004°38'713.1
2019-Jul-17 01:00N 59°17' E 004°32'713.8
2019-Jul-17 00:30N 59°23' E 004°26'714.1
2019-Jul-17 00:00N 59°30' E 004°25'713.8
2019-Jul-16 23:29N 59°37' E 004°25'713.9
2019-Jul-16 23:00N 59°44' E 004°24'713.8
2019-Jul-16 22:31N 59°51' E 004°24'713.6
2019-Jul-16 22:00N 59°57' E 004°23'713.5
2019-Jul-16 21:30N 60°04' E 004°23'713.6
2019-Jul-16 21:00N 60°11' E 004°22'713.8
2019-Jul-16 20:30N 60°18' E 004°22'1019.0
2019-Jul-16 20:00N 60°27' E 004°21'1019.0
2019-Jul-16 19:30N 60°36' E 004°27'918.6
2019-Jul-16 19:00N 60°44' E 004°37'612.7
2019-Jul-16 18:30N 60°41' E 004°49'919.1
2019-Jul-16 18:00N 60°33' E 004°56'917.5
2019-Jul-16 17:31N 60°25' E 005°04'5 9.4
2019-Jul-16 17:00N 60°24' E 005°14'3 5.0
2019-Jul-16 16:29N 60°24' E 005°19'0 0.0
2019-Jul-16 15:59N 60°24' E 005°19'0 0.0
2019-Jul-16 15:29N 60°24' E 005°19'0 0.0
2019-Jul-16 14:59N 60°24' E 005°19'0 0.0
2019-Jul-16 14:29N 60°24' E 005°19'0 0.0
2019-Jul-16 13:59N 60°24' E 005°19'0 0.0
2019-Jul-16 13:26N 60°24' E 005°19'0 0.0
2019-Jul-16 12:59N 60°24' E 005°19'0 0.0
2019-Jul-16 12:29N 60°24' E 005°19'0 0.0
2019-Jul-16 11:58N 60°24' E 005°19'0 0.0
2019-Jul-16 11:28N 60°24' E 005°19'0 0.0
2019-Jul-16 10:58N 60°24' E 005°19'0 0.0
2019-Jul-16 10:28N 60°24' E 005°19'0 0.0
2019-Jul-16 09:58N 60°24' E 005°19'0 0.0
2019-Jul-16 09:28N 60°24' E 005°19'0 0.0
2019-Jul-16 08:58N 60°24' E 005°19'0 0.0
2019-Jul-16 08:28N 60°24' E 005°19'0 0.0
2019-Jul-16 07:58N 60°24' E 005°19'0 0.0
2019-Jul-16 07:28N 60°24' E 005°19'0 0.0
2019-Jul-16 06:58N 60°24' E 005°19'0 0.0
2019-Jul-16 06:28N 60°24' E 005°19'0 0.0
2019-Jul-16 05:58N 60°24' E 005°19'0 0.0
2019-Jul-16 05:30N 60°24' E 005°19'1 2.5
2019-Jul-16 05:00N 60°24' E 005°16'4 8.6
2019-Jul-16 04:31N 60°24' E 005°08'611.4
2019-Jul-16 04:00N 60°28' E 004°60'918.5
2019-Jul-16 03:30N 60°37' E 004°53'917.6
2019-Jul-16 03:00N 60°44' E 004°43'611.1
2019-Jul-16 02:30N 60°47' E 004°34'1019.3
2019-Jul-16 02:00N 60°55' E 004°21'1020.2
2019-Jul-16 01:30N 61°05' E 004°19'1020.2
2019-Jul-16 01:00N 61°15' E 004°18'1020.0
2019-Jul-16 00:30N 61°25' E 004°19'1020.3
2019-Jul-15 23:59N 61°35' E 004°22'1020.1
2019-Jul-15 23:30N 61°45' E 004°25'1020.2
2019-Jul-15 23:00N 61°54' E 004°31'1020.4
2019-Jul-15 22:30N 62°04' E 004°40'1020.3
2019-Jul-15 22:00N 62°13' E 004°49'1019.7
2019-Jul-15 21:30N 62°21' E 005°00'1019.5
2019-Jul-15 21:00N 62°27' E 005°18'1019.6
2019-Jul-15 20:30N 62°30' E 005°38'918.8
2019-Jul-15 20:00N 62°27' E 005°57'612.5
2019-Jul-15 19:30N 62°23' E 006°07'917.3
2019-Jul-15 19:00N 62°24' E 006°25'918.5
2019-Jul-15 18:30N 62°27' E 006°44'815.9
2019-Jul-15 17:59N 62°21' E 006°56'817.5
2019-Jul-15 17:30N 62°13' E 007°01'714.5
2019-Jul-15 17:00N 62°06' E 006°58'510.1
2019-Jul-15 16:30N 62°07' E 007°09'1 2.4
2019-Jul-15 16:00N 62°07' E 007°11'0 0.0
2019-Jul-15 15:30N 62°07' E 007°11'0 0.0
2019-Jul-15 15:00N 62°07' E 007°11'0 0.0
2019-Jul-15 14:30N 62°07' E 007°11'0 0.0
2019-Jul-15 14:00N 62°07' E 007°11'0 0.0
2019-Jul-15 13:30N 62°07' E 007°11'0 0.0
2019-Jul-15 12:59N 62°07' E 007°11'0 0.0
2019-Jul-15 12:30N 62°07' E 007°11'0 0.0
2019-Jul-15 12:00N 62°07' E 007°11'0 0.0
2019-Jul-15 11:30N 62°07' E 007°11'0 0.0
2019-Jul-15 11:00N 62°07' E 007°11'0 0.0
2019-Jul-15 10:30N 62°07' E 007°11'0 0.0
2019-Jul-15 10:00N 62°07' E 007°11'0 0.0
2019-Jul-15 09:30N 62°07' E 007°11'0 0.0
2019-Jul-15 09:00N 62°07' E 007°11'0 0.0
2019-Jul-15 08:30N 62°07' E 007°11'0 0.1
2019-Jul-15 08:00N 62°07' E 007°11'2 4.8
2019-Jul-15 07:30N 62°06' E 007°06'612.3
2019-Jul-15 06:59N 62°05' E 006°53'0 0.9
2019-Jul-15 06:28N 62°05' E 006°53'0 0.0
2019-Jul-15 05:55N 62°05' E 006°53'0 0.0
2019-Jul-15 05:25N 62°05' E 006°53'0 0.6
2019-Jul-15 05:00N 62°05' E 006°53'4 8.0
2019-Jul-15 04:30N 62°08' E 006°58'611.7
2019-Jul-15 04:00N 62°14' E 007°02'612.7
2019-Jul-15 03:30N 62°20' E 006°57'713.0
2019-Jul-15 03:00N 62°26' E 006°53'713.6
2019-Jul-15 02:30N 62°27' E 006°38'714.4
2019-Jul-15 02:00N 62°24' E 006°24'714.2
2019-Jul-15 01:30N 62°23' E 006°09'611.9
2019-Jul-15 01:00N 62°27' E 005°59'611.7
2019-Jul-15 00:30N 62°29' E 005°47'816.5
2019-Jul-15 00:00N 62°29' E 005°29'918.7
2019-Jul-14 23:30N 62°23' E 005°13'918.9
2019-Jul-14 23:00N 62°17' E 004°58'1018.9
2019-Jul-14 22:30N 62°11' E 004°41'918.5
2019-Jul-14 21:59N 62°05' E 004°25'918.9
2019-Jul-14 21:30N 61°58' E 004°13'1020.4
2019-Jul-14 21:00N 61°48' E 004°12'1020.4
2019-Jul-14 20:30N 61°38' E 004°11'1020.4
2019-Jul-14 20:00N 61°28' E 004°11'1120.4
2019-Jul-14 19:29N 61°17' E 004°11'1020.3
2019-Jul-14 19:00N 61°07' E 004°11'1020.3
2019-Jul-14 18:30N 60°57' E 004°11'1020.3
2019-Jul-14 18:00N 60°47' E 004°11'1019.9
2019-Jul-14 17:30N 60°37' E 004°10'1020.5
2019-Jul-14 17:00N 60°27' E 004°11'1020.2
2019-Jul-14 16:30N 60°17' E 004°11'1020.2
2019-Jul-14 16:00N 60°07' E 004°11'1020.4
2019-Jul-14 15:30N 59°56' E 004°11'1020.4
2019-Jul-14 15:00N 59°46' E 004°11'1020.5
2019-Jul-14 14:30N 59°36' E 004°11'1020.1
2019-Jul-14 14:00N 59°26' E 004°11'1019.8
2019-Jul-14 13:30N 59°16' E 004°11'1019.6
2019-Jul-14 13:00N 59°06' E 004°11'918.8
2019-Jul-14 12:30N 58°57' E 004°17'1019.0
2019-Jul-14 12:00N 58°50' E 004°28'1019.4
2019-Jul-14 11:29N 58°43' E 004°41'1019.7
2019-Jul-14 11:00N 58°36' E 004°54'1019.3
2019-Jul-14 10:30N 58°29' E 005°07'1019.6
2019-Jul-14 10:00N 58°22' E 005°21'1019.2
2019-Jul-14 09:30N 58°16' E 005°35'917.4
2019-Jul-14 09:00N 58°10' E 005°47'917.4
2019-Jul-14 08:30N 58°04' E 005°60'917.4
2019-Jul-14 08:00N 57°59' E 006°12'917.6
2019-Jul-14 07:30N 57°53' E 006°25'917.8
2019-Jul-14 07:00N 57°49' E 006°39'918.2
2019-Jul-14 06:30N 57°47' E 006°56'1019.7
2019-Jul-14 06:00N 57°47' E 007°14'1020.2
2019-Jul-14 05:30N 57°46' E 007°33'1019.7
2019-Jul-14 05:00N 57°46' E 007°51'1019.5
2019-Jul-14 04:30N 57°47' E 008°10'1019.4
2019-Jul-14 04:00N 57°47' E 008°28'1019.2
2019-Jul-14 03:30N 57°48' E 008°46'918.9
2019-Jul-14 03:00N 57°49' E 009°03'918.7
2019-Jul-14 02:30N 57°50' E 009°21'918.8
2019-Jul-14 02:00N 57°49' E 009°39'919.0
2019-Jul-14 01:30N 57°50' E 009°56'1019.2
2019-Jul-14 01:00N 57°50' E 010°14'918.6
2019-Jul-14 00:30N 57°50' E 010°32'917.7
2019-Jul-14 00:00N 57°48' E 010°48'918.4
2019-Jul-13 23:30N 57°43' E 011°02'919.0
2019-Jul-13 23:00N 57°36' E 011°14'1019.3
2019-Jul-13 22:30N 57°29' E 011°26'1019.0
2019-Jul-13 22:00N 57°20' E 011°32'1019.4
2019-Jul-13 21:30N 57°11' E 011°38'1019.0
2019-Jul-13 21:00N 57°01' E 011°44'1019.0
2019-Jul-13 20:30N 56°53' E 011°50'918.3
2019-Jul-13 20:00N 56°44' E 011°55'1018.0
2019-Jul-13 19:29N 56°35' E 011°59'1018.5
2019-Jul-13 18:55N 56°25' E 012°04'1318.3
2019-Jul-13 18:13N 56°14' E 012°16'418.7
2019-Jul-13 18:00N 56°12' E 012°22'1019.1
2019-Jul-13 17:30N 56°06' E 012°35'917.2
2019-Jul-13 17:00N 55°58' E 012°42'816.9
2019-Jul-13 16:30N 55°50' E 012°44'416.5
2019-Jul-13 16:15N 55°46' E 012°41'312.9
2019-Jul-13 16:00N 55°43' E 012°38'0 7.4
2019-Jul-13 16:00N 55°43' E 012°38'0 0.6
2019-Jul-13 15:26N 55°43' E 012°38'0 0.8
2019-Jul-13 15:25N 55°43' E 012°38'0 0.0
2019-Jul-13 14:58N 55°43' E 012°38'0 4.4
2019-Jul-13 14:57N 55°43' E 012°38'0 0.0
2019-Jul-13 14:30N 55°43' E 012°38'0 0.4
2019-Jul-13 14:28N 55°43' E 012°38'0 0.0
2019-Jul-13 14:00N 55°43' E 012°38'0 0.4
2019-Jul-13 13:58N 55°43' E 012°38'0 0.1
2019-Jul-13 13:28N 55°43' E 012°38'0 2.4
2019-Jul-13 13:28N 55°43' E 012°38'0 0.0
2019-Jul-13 12:58N 55°43' E 012°38'0 2.9
2019-Jul-13 12:57N 55°43' E 012°38'0 0.1
2019-Jul-13 12:30N 55°43' E 012°38'0 0.4
2019-Jul-13 12:28N 55°43' E 012°38'0 0.0
2019-Jul-13 11:58N 55°43' E 012°38'0 1.3
2019-Jul-13 11:58N 55°43' E 012°38'0 0.0
2019-Jul-13 11:28N 55°43' E 012°38'0 0.6
2019-Jul-13 11:25N 55°43' E 012°38'0 0.0
2019-Jul-13 10:58N 55°43' E 012°38'0 0.0
2019-Jul-13 10:28N 55°43' E 012°38'0 0.3
2019-Jul-13 10:24N 55°43' E 012°38'0 0.0
2019-Jul-13 10:00N 55°43' E 012°38'0 0.3
2019-Jul-13 09:58N 55°43' E 012°38'0 0.0
2019-Jul-13 09:30N 55°43' E 012°38'0 0.5
2019-Jul-13 09:28N 55°43' E 012°38'0 0.0
2019-Jul-13 09:00N 55°43' E 012°38'0 0.3
2019-Jul-13 08:58N 55°43' E 012°38'0 0.1
2019-Jul-13 08:30N 55°43' E 012°38'0 0.6
2019-Jul-13 08:28N 55°43' E 012°38'0 0.0
2019-Jul-13 07:58N 55°43' E 012°38'0 0.0
2019-Jul-13 07:28N 55°43' E 012°38'0 0.0
2019-Jul-13 06:58N 55°43' E 012°38'0 0.0
2019-Jul-13 06:28N 55°43' E 012°38'0 0.0
2019-Jul-13 06:00N 55°43' E 012°38'0 0.1
2019-Jul-13 05:30N 55°43' E 012°38'2 4.3
2019-Jul-13 05:00N 55°45' E 012°40'714.6
2019-Jul-13 04:30N 55°52' E 012°40'815.2
2019-Jul-13 04:00N 55°59' E 012°41'816.4
2019-Jul-13 03:30N 56°06' E 012°32'918.1
2019-Jul-13 03:00N 56°11' E 012°18'917.9
2019-Jul-13 02:30N 56°11' E 012°02'1118.5
2019-Jul-13 01:55N 56°08' E 011°43'818.4
2019-Jul-13 01:30N 56°07' E 011°29'918.1
2019-Jul-13 00:59N 56°08' E 011°13'1519.7
2019-Jul-13 00:12N 55°55' E 010°57'2417.8
2019-Jul-12 22:52N 55°31' E 010°52'718.6
2019-Jul-12 22:30N 55°26' E 010°59'918.4
2019-Jul-12 22:00N 55°17' E 011°04'917.3
2019-Jul-12 21:30N 55°08' E 011°03'918.1
2019-Jul-12 21:00N 54°59' E 011°01'918.8
2019-Jul-12 20:30N 54°51' E 010°53'1019.2
2019-Jul-12 20:00N 54°42' E 010°55'1020.7
2019-Jul-12 19:30N 54°37' E 011°10'1020.4
2019-Jul-12 19:00N 54°32' E 011°26'1020.4
2019-Jul-12 18:30N 54°27' E 011°41'1020.0
2019-Jul-12 18:00N 54°21' E 011°56'917.1
2019-Jul-12 17:30N 54°14' E 012°04'4 7.6
2019-Jul-12 16:59N 54°10' E 012°06'0 0.0
2019-Jul-12 16:00N 54°10' E 012°06'0 0.0
2019-Jul-12 14:42N 54°10' E 012°06'  
Track history (hours):
 
Tides and Currents Weather Stations Pressure Air Temp Water Temp Dewpoint Dewpoint Depression Visibility Wind Speed Wind Dir Waves Ship Positions

M/V C0sta Favolosa

Last reported at 2019-Jul-22 14:30 UTC. Time now 2019-Jul-22 14:33 UTC.
Position N 62°07' E 007°11'.

Length 289 m; draft 8.3 m.

Type: Passenger vessel. MMSI: 247311100.

Date/timePositionNaut miles runAvg speedWind from/ knotsBaromVisibWave heightAir tempDewpointWater temp
2019-Jul-22 14:30N 62°07' E 007°11'0 0.0
2019-Jul-22 14:00N 62°07' E 007°11'0 0.0
2019-Jul-22 13:30N 62°07' E 007°11'0 0.0
2019-Jul-22 13:00N 62°07' E 007°11'0 0.0
2019-Jul-22 12:30N 62°07' E 007°11'0 0.0
2019-Jul-22 12:00N 62°07' E 007°11'0 0.0
2019-Jul-22 11:30N 62°07' E 007°11'0 0.0
2019-Jul-22 11:00N 62°07' E 007°11'0 0.0
2019-Jul-22 10:30N 62°07' E 007°11'0 0.0
2019-Jul-22 09:59N 62°07' E 007°11'0 0.0
2019-Jul-22 09:30N 62°07' E 007°11'0 0.0
2019-Jul-22 09:00N 62°07' E 007°11'0 0.0
2019-Jul-22 08:30N 62°07' E 007°11'0 0.1
2019-Jul-22 08:00N 62°07' E 007°11'3 6.2
2019-Jul-22 07:30N 62°06' E 007°05'611.2
2019-Jul-22 07:00N 62°05' E 006°53'0 0.8
2019-Jul-22 06:26N 62°05' E 006°53'0 0.0
2019-Jul-22 05:59N 62°05' E 006°53'0 0.0
2019-Jul-22 05:29N 62°05' E 006°53'1 1.0
2019-Jul-22 05:00N 62°06' E 006°53'4 7.1
2019-Jul-22 04:29N 62°08' E 006°58'612.0
2019-Jul-22 04:00N 62°14' E 007°01'612.0
2019-Jul-22 03:30N 62°20' E 006°57'612.1
2019-Jul-22 03:00N 62°26' E 006°54'713.1
2019-Jul-22 02:30N 62°27' E 006°40'714.2
2019-Jul-22 02:00N 62°25' E 006°26'714.2
2019-Jul-22 01:30N 62°23' E 006°11'612.5
2019-Jul-22 01:00N 62°26' E 005°59'611.8
2019-Jul-22 00:30N 62°29' E 005°48'816.8
2019-Jul-22 00:00N 62°28' E 005°30'918.8
2019-Jul-21 23:30N 62°24' E 005°12'1019.2
2019-Jul-21 23:00N 62°19' E 004°55'1019.0
2019-Jul-21 22:30N 62°12' E 004°41'1019.0
2019-Jul-21 22:00N 62°08' E 004°21'918.0
2019-Jul-21 21:30N 62°01' E 004°10'1019.0
2019-Jul-21 21:00N 61°51' E 004°11'918.8
2019-Jul-21 20:30N 61°42' E 004°12'1019.6
2019-Jul-21 20:00N 61°32' E 004°12'1019.8
2019-Jul-21 19:30N 61°23' E 004°12'1020.0
2019-Jul-21 19:00N 61°12' E 004°12'1019.8
2019-Jul-21 18:30N 61°03' E 004°12'1019.6
2019-Jul-21 18:00N 60°53' E 004°11'1019.6
2019-Jul-21 17:30N 60°43' E 004°11'1019.6
2019-Jul-21 17:00N 60°33' E 004°11'1019.6
2019-Jul-21 16:30N 60°23' E 004°11'1019.5
2019-Jul-21 16:00N 60°14' E 004°11'919.4
2019-Jul-21 15:30N 60°04' E 004°13'1019.5
2019-Jul-21 15:00N 59°54' E 004°14'1019.2
2019-Jul-21 14:30N 59°45' E 004°12'1019.4
2019-Jul-21 14:00N 59°35' E 004°10'1019.1
2019-Jul-21 13:30N 59°25' E 004°09'918.8
2019-Jul-21 13:00N 59°16' E 004°11'918.6
2019-Jul-21 12:30N 59°07' E 004°12'1018.6
2019-Jul-21 12:00N 58°58' E 004°15'1018.9
2019-Jul-21 11:29N 58°50' E 004°26'918.7
2019-Jul-21 11:00N 58°43' E 004°38'918.7
2019-Jul-21 10:30N 58°37' E 004°51'918.7
2019-Jul-21 10:00N 58°31' E 005°05'918.5
2019-Jul-21 09:30N 58°25' E 005°18'918.9
2019-Jul-21 09:00N 58°18' E 005°31'918.4
2019-Jul-21 08:30N 58°12' E 005°44'918.5
2019-Jul-21 08:00N 58°06' E 005°57'1019.1
2019-Jul-21 07:30N 57°59' E 006°10'918.9
2019-Jul-21 07:00N 57°53' E 006°24'1018.9
2019-Jul-21 06:30N 57°48' E 006°39'918.7
2019-Jul-21 06:00N 57°47' E 006°56'1018.9
2019-Jul-21 05:30N 57°47' E 007°14'918.9
2019-Jul-21 05:00N 57°46' E 007°31'919.1
2019-Jul-21 04:31N 57°46' E 007°49'1019.4
2019-Jul-21 04:00N 57°47' E 008°07'1019.6
2019-Jul-21 03:30N 57°47' E 008°26'1019.5
2019-Jul-21 03:00N 57°47' E 008°44'1019.5
2019-Jul-21 02:30N 57°48' E 009°03'919.0
2019-Jul-21 02:00N 57°48' E 009°20'918.7
2019-Jul-21 01:30N 57°49' E 009°38'918.8
2019-Jul-21 01:00N 57°49' E 009°56'918.8
2019-Jul-21 00:30N 57°50' E 010°13'918.4
2019-Jul-21 00:00N 57°50' E 010°30'918.4
2019-Jul-20 23:31N 57°48' E 010°47'918.6
2019-Jul-20 23:00N 57°43' E 011°01'919.0
2019-Jul-20 22:31N 57°36' E 011°12'1019.3
2019-Jul-20 22:00N 57°29' E 011°26'1019.8
2019-Jul-20 21:31N 57°20' E 011°32'1019.5
2019-Jul-20 21:01N 57°11' E 011°38'1018.9
2019-Jul-20 20:30N 57°02' E 011°44'1019.3
2019-Jul-20 20:00N 56°53' E 011°50'1019.0
2019-Jul-20 19:29N 56°43' E 011°56'919.2
2019-Jul-20 19:00N 56°34' E 011°59'1019.4
2019-Jul-20 18:30N 56°25' E 012°03'1119.2
2019-Jul-20 17:55N 56°15' E 012°13'818.9
2019-Jul-20 17:30N 56°10' E 012°25'918.7
2019-Jul-20 17:00N 56°04' E 012°38'816.7
2019-Jul-20 16:30N 55°57' E 012°43'918.2
2019-Jul-20 16:00N 55°48' E 012°43'611.2
2019-Jul-20 15:30N 55°43' E 012°38'0 0.1
2019-Jul-20 15:00N 55°43' E 012°38'0 0.0
2019-Jul-20 14:30N 55°43' E 012°38'0 0.0
2019-Jul-20 14:00N 55°43' E 012°38'0 0.0
2019-Jul-20 13:30N 55°43' E 012°38'0 0.0
2019-Jul-20 13:00N 55°43' E 012°38'0 0.0
2019-Jul-20 12:30N 55°43' E 012°38'0 0.0
2019-Jul-20 11:59N 55°43' E 012°38'0 0.0
2019-Jul-20 11:26N 55°43' E 012°38'0 0.0
2019-Jul-20 10:59N 55°43' E 012°38'0 0.0
2019-Jul-20 10:29N 55°43' E 012°38'0 0.0
2019-Jul-20 09:59N 55°43' E 012°38'0 0.0
2019-Jul-20 09:29N 55°43' E 012°38'0 0.0
2019-Jul-20 08:59N 55°43' E 012°38'0 0.0
2019-Jul-20 08:29N 55°43' E 012°38'0 0.0
2019-Jul-20 07:59N 55°43' E 012°38'0 0.0
2019-Jul-20 07:26N 55°43' E 012°38'0 0.0
2019-Jul-20 06:59N 55°43' E 012°38'0 0.0
2019-Jul-20 06:29N 55°43' E 012°38'0 0.1
2019-Jul-20 06:01N 55°43' E 012°38'1 2.0
2019-Jul-20 05:31N 55°44' E 012°39'4 7.7
2019-Jul-20 05:01N 55°47' E 012°42'612.6
2019-Jul-20 04:30N 55°53' E 012°40'714.1
2019-Jul-20 04:00N 56°00' E 012°40'815.9
2019-Jul-20 03:31N 56°06' E 012°32'816.8
2019-Jul-20 03:01N 56°11' E 012°19'816.1
2019-Jul-20 02:30N 56°11' E 012°05'917.9
2019-Jul-20 02:00N 56°09' E 011°49'918.0
2019-Jul-20 01:30N 56°08' E 011°33'917.9
2019-Jul-20 01:01N 56°08' E 011°17'917.0
2019-Jul-20 00:30N 56°02' E 011°06'1019.1
2019-Jul-20 00:00N 55°54' E 010°56'2617.5
2019-Jul-19 22:32N 55°28' E 010°55'119.0
2019-Jul-19 22:30N 55°28' E 010°56'917.8
2019-Jul-19 21:58N 55°19' E 011°03'818.4
2019-Jul-19 21:30N 55°11' E 011°04'1021.0
2019-Jul-19 21:01N 55°00' E 011°02'1019.7
2019-Jul-19 20:30N 54°52' E 010°53'918.4
2019-Jul-19 20:01N 54°43' E 010°53'918.2
2019-Jul-19 19:31N 54°38' E 011°07'918.6
2019-Jul-19 19:01N 54°34' E 011°21'918.4
2019-Jul-19 18:31N 54°29' E 011°35'918.4
2019-Jul-19 18:01N 54°25' E 011°49'918.2
2019-Jul-19 17:31N 54°19' E 012°00'713.6
2019-Jul-19 16:59N 54°12' E 012°05'2 1.0
2019-Jul-19 15:21N 54°11' E 012°06'0 0.0
2019-Jul-19 14:15N 54°11' E 012°06'0 0.0
2019-Jul-19 10:33N 54°11' E 012°06'0 0.0
2019-Jul-19 10:30N 54°11' E 012°06'0 0.0
2019-Jul-19 09:48N 54°11' E 012°06'0 0.0
2019-Jul-19 09:21N 54°11' E 012°06'0 0.0
2019-Jul-19 09:00N 54°11' E 012°06'0 0.0
2019-Jul-19 08:30N 54°11' E 012°06'0 0.0
2019-Jul-19 08:00N 54°11' E 012°06'0 0.0
2019-Jul-19 07:27N 54°11' E 012°06'0 0.0
2019-Jul-19 06:51N 54°11' E 012°06'0 0.0
2019-Jul-19 06:24N 54°11' E 012°06'0 0.0
2019-Jul-19 06:00N 54°11' E 012°06'1 2.0
2019-Jul-19 05:27N 54°10' E 012°06'3 5.8
2019-Jul-19 05:00N 54°12' E 012°05'5 9.4
2019-Jul-19 04:30N 54°16' E 012°01'816.5
2019-Jul-19 04:00N 54°22' E 011°51'1019.7
2019-Jul-19 03:30N 54°27' E 011°37'1019.7
2019-Jul-19 03:01N 54°32' E 011°22'1019.3
2019-Jul-19 02:31N 54°36' E 011°07'1019.0
2019-Jul-19 02:00N 54°41' E 010°53'917.8
2019-Jul-19 01:30N 54°50' E 010°52'816.7
2019-Jul-19 01:01N 54°58' E 010°58'917.7
2019-Jul-19 00:31N 55°06' E 011°02'917.6
2019-Jul-19 00:00N 55°15' E 011°05'918.7
2019-Jul-18 23:30N 55°24' E 010°60'1019.5
2019-Jul-18 23:00N 55°32' E 010°51'1018.9
2019-Jul-18 22:29N 55°41' E 010°46'919.1
2019-Jul-18 22:00N 55°50' E 010°50'1019.6
2019-Jul-18 21:30N 55°58' E 011°01'1019.9
2019-Jul-18 20:59N 56°07' E 011°10'2120.1
2019-Jul-18 19:57N 56°24' E 011°31'1320.3
2019-Jul-18 19:18N 56°35' E 011°44'620.6
2019-Jul-18 19:01N 56°41' E 011°48'1019.1
2019-Jul-18 18:31N 56°50' E 011°48'1020.4
2019-Jul-18 18:00N 57°00' E 011°42'1020.7
2019-Jul-18 17:30N 57°10' E 011°36'1019.7
2019-Jul-18 17:01N 57°20' E 011°33'1020.5
2019-Jul-18 16:31N 57°30' E 011°36'815.0
2019-Jul-18 16:00N 57°37' E 011°40'5 9.7
2019-Jul-18 15:31N 57°41' E 011°46'3 5.2
2019-Jul-18 14:58N 57°41' E 011°51'0 0.0
2019-Jul-18 14:28N 57°41' E 011°51'0 0.0
2019-Jul-18 13:58N 57°41' E 011°51'0 0.0
2019-Jul-18 13:28N 57°41' E 011°51'0 0.0
2019-Jul-18 12:58N 57°41' E 011°51'0 0.0
2019-Jul-18 12:28N 57°41' E 011°51'0 0.0
2019-Jul-18 11:58N 57°41' E 011°51'0 0.0
2019-Jul-18 11:28N 57°41' E 011°51'0 0.0
2019-Jul-18 10:58N 57°41' E 011°51'0 0.0
2019-Jul-18 10:28N 57°41' E 011°51'300654.3
2019-Jul-18 10:00N 62°07' E 007°11'300553.3
2019-Jul-18 09:28N 57°41' E 011°51'0 0.0
2019-Jul-18 08:58N 57°41' E 011°51'0 0.0
2019-Jul-18 08:28N 57°41' E 011°51'0 0.0
2019-Jul-18 08:00N 57°41' E 011°51'0 0.6
2019-Jul-18 07:30N 57°41' E 011°51'3 6.9
2019-Jul-18 07:00N 57°41' E 011°44'510.2
2019-Jul-18 06:30N 57°37' E 011°38'612.6
2019-Jul-18 06:00N 57°38' E 011°27'612.7
2019-Jul-18 05:31N 57°41' E 011°17'815.7
2019-Jul-18 05:01N 57°46' E 011°04'918.2
2019-Jul-18 04:31N 57°50' E 010°50'1019.0
2019-Jul-18 04:01N 57°53' E 010°33'1020.4
2019-Jul-18 03:30N 57°52' E 010°14'1019.6
2019-Jul-18 03:01N 57°50' E 009°55'1019.4
2019-Jul-18 02:31N 57°49' E 009°37'1019.6
2019-Jul-18 02:00N 57°47' E 009°19'1019.9
2019-Jul-18 01:31N 57°46' E 009°01'1020.2
2019-Jul-18 01:01N 57°45' E 008°42'1020.0
2019-Jul-18 00:31N 57°44' E 008°23'1019.6
2019-Jul-18 00:01N 57°43' E 008°05'1019.6
2019-Jul-17 23:31N 57°42' E 007°47'1019.4
2019-Jul-17 23:01N 57°43' E 007°29'1019.3
2019-Jul-17 22:30N 57°43' E 007°11'1019.0
2019-Jul-17 22:00N 57°43' E 006°53'1019.2
2019-Jul-17 21:30N 57°44' E 006°35'1019.0
2019-Jul-17 20:59N 57°49' E 006°20'918.7
2019-Jul-17 20:30N 57°55' E 006°07'919.0
2019-Jul-17 20:00N 58°01' E 005°53'1019.1
2019-Jul-17 19:30N 58°08' E 005°39'1019.1
2019-Jul-17 19:00N 58°14' E 005°26'1019.2
2019-Jul-17 18:30N 58°21' E 005°13'918.8
2019-Jul-17 18:00N 58°30' E 005°15'918.9
2019-Jul-17 17:30N 58°39' E 005°16'917.9
2019-Jul-17 17:00N 58°48' E 005°19'816.0
2019-Jul-17 16:30N 58°53' E 005°31'815.5
2019-Jul-17 16:00N 59°01' E 005°33'4 8.0
2019-Jul-17 15:30N 59°01' E 005°40'3 5.1
2019-Jul-17 14:59N 58°58' E 005°44'0 0.0
2019-Jul-17 14:29N 58°58' E 005°44'0 0.0
2019-Jul-17 13:59N 58°58' E 005°44'0 0.0
2019-Jul-17 13:29N 58°58' E 005°44'0 0.0
2019-Jul-17 12:59N 58°58' E 005°44'0 0.0
2019-Jul-17 12:29N 58°58' E 005°44'0 0.0
2019-Jul-17 11:59N 58°58' E 005°44'0 0.0
2019-Jul-17 11:29N 58°58' E 005°44'0 0.0
2019-Jul-17 10:59N 58°58' E 005°44'0 0.0
2019-Jul-17 10:29N 58°58' E 005°44'0 0.0
2019-Jul-17 09:59N 58°58' E 005°44'0 0.0
2019-Jul-17 09:29N 58°58' E 005°44'0 0.0
2019-Jul-17 08:59N 58°58' E 005°44'0 0.0
2019-Jul-17 08:29N 58°58' E 005°44'0 0.0
2019-Jul-17 07:59N 58°58' E 005°44'0 0.0
2019-Jul-17 07:29N 58°58' E 005°44'0 0.0
2019-Jul-17 06:59N 58°58' E 005°44'0 0.0
2019-Jul-17 06:29N 58°58' E 005°44'0 0.0
2019-Jul-17 05:59N 58°58' E 005°44'0 0.1
2019-Jul-17 05:30N 58°59' E 005°44'1 2.9
2019-Jul-17 05:00N 58°60' E 005°42'5 9.0
2019-Jul-17 04:30N 59°03' E 005°36'511.0
2019-Jul-17 04:00N 59°06' E 005°28'5 9.5
2019-Jul-17 03:30N 59°04' E 005°19'611.8
2019-Jul-17 03:00N 59°01' E 005°09'611.2
2019-Jul-17 02:30N 59°03' E 004°59'713.4
2019-Jul-17 02:00N 59°07' E 004°49'713.6
2019-Jul-17 01:30N 59°11' E 004°38'713.1
2019-Jul-17 01:00N 59°17' E 004°32'713.8
2019-Jul-17 00:30N 59°23' E 004°26'714.1
2019-Jul-17 00:00N 59°30' E 004°25'713.8
2019-Jul-16 23:29N 59°37' E 004°25'713.9
2019-Jul-16 23:00N 59°44' E 004°24'713.8
2019-Jul-16 22:31N 59°51' E 004°24'713.6
2019-Jul-16 22:00N 59°57' E 004°23'713.5
2019-Jul-16 21:30N 60°04' E 004°23'713.6
2019-Jul-16 21:00N 60°11' E 004°22'713.8
2019-Jul-16 20:30N 60°18' E 004°22'1019.0
2019-Jul-16 20:00N 60°27' E 004°21'1019.0
2019-Jul-16 19:30N 60°36' E 004°27'918.6
2019-Jul-16 19:00N 60°44' E 004°37'612.7
2019-Jul-16 18:30N 60°41' E 004°49'919.1
2019-Jul-16 18:00N 60°33' E 004°56'917.5
2019-Jul-16 17:31N 60°25' E 005°04'5 9.4
2019-Jul-16 17:00N 60°24' E 005°14'3 5.0
2019-Jul-16 16:29N 60°24' E 005°19'0 0.0
2019-Jul-16 15:59N 60°24' E 005°19'0 0.0
2019-Jul-16 15:29N 60°24' E 005°19'0 0.0
2019-Jul-16 14:59N 60°24' E 005°19'0 0.0
2019-Jul-16 14:29N 60°24' E 005°19'0 0.0
2019-Jul-16 13:59N 60°24' E 005°19'0 0.0
2019-Jul-16 13:26N 60°24' E 005°19'0 0.0
2019-Jul-16 12:59N 60°24' E 005°19'0 0.0
2019-Jul-16 12:29N 60°24' E 005°19'0 0.0
2019-Jul-16 11:58N 60°24' E 005°19'0 0.0
2019-Jul-16 11:28N 60°24' E 005°19'0 0.0
2019-Jul-16 10:58N 60°24' E 005°19'0 0.0
2019-Jul-16 10:28N 60°24' E 005°19'0 0.0
2019-Jul-16 09:58N 60°24' E 005°19'0 0.0
2019-Jul-16 09:28N 60°24' E 005°19'0 0.0
2019-Jul-16 08:58N 60°24' E 005°19'0 0.0
2019-Jul-16 08:28N 60°24' E 005°19'0 0.0
2019-Jul-16 07:58N 60°24' E 005°19'0 0.0
2019-Jul-16 07:28N 60°24' E 005°19'0 0.0
2019-Jul-16 06:58N 60°24' E 005°19'0 0.0
2019-Jul-16 06:28N 60°24' E 005°19'0 0.0
2019-Jul-16 05:58N 60°24' E 005°19'0 0.0
2019-Jul-16 05:30N 60°24' E 005°19'1 2.5
2019-Jul-16 05:00N 60°24' E 005°16'4 8.6
2019-Jul-16 04:31N 60°24' E 005°08'611.4
2019-Jul-16 04:00N 60°28' E 004°60'918.5
2019-Jul-16 03:30N 60°37' E 004°53'917.6
2019-Jul-16 03:00N 60°44' E 004°43'611.1
2019-Jul-16 02:30N 60°47' E 004°34'1019.3
2019-Jul-16 02:00N 60°55' E 004°21'1020.2
2019-Jul-16 01:30N 61°05' E 004°19'1020.2
2019-Jul-16 01:00N 61°15' E 004°18'1020.0
2019-Jul-16 00:30N 61°25' E 004°19'1020.3
2019-Jul-15 23:59N 61°35' E 004°22'1020.1
2019-Jul-15 23:30N 61°45' E 004°25'1020.2
2019-Jul-15 23:00N 61°54' E 004°31'1020.4
2019-Jul-15 22:30N 62°04' E 004°40'1020.3
2019-Jul-15 22:00N 62°13' E 004°49'1019.7
2019-Jul-15 21:30N 62°21' E 005°00'1019.5
2019-Jul-15 21:00N 62°27' E 005°18'1019.6
2019-Jul-15 20:30N 62°30' E 005°38'918.8
2019-Jul-15 20:00N 62°27' E 005°57'612.5
2019-Jul-15 19:30N 62°23' E 006°07'917.3
2019-Jul-15 19:00N 62°24' E 006°25'918.5
2019-Jul-15 18:30N 62°27' E 006°44'815.9
2019-Jul-15 17:59N 62°21' E 006°56'817.5
2019-Jul-15 17:30N 62°13' E 007°01'714.5
2019-Jul-15 17:00N 62°06' E 006°58'510.1
2019-Jul-15 16:30N 62°07' E 007°09'1 2.4
2019-Jul-15 16:00N 62°07' E 007°11'0 0.0
2019-Jul-15 15:30N 62°07' E 007°11'0 0.0
2019-Jul-15 15:00N 62°07' E 007°11'0 0.0
2019-Jul-15 14:30N 62°07' E 007°11'0 0.0
2019-Jul-15 14:00N 62°07' E 007°11'0 0.0
2019-Jul-15 13:30N 62°07' E 007°11'0 0.0
2019-Jul-15 12:59N 62°07' E 007°11'0 0.0
2019-Jul-15 12:30N 62°07' E 007°11'0 0.0
2019-Jul-15 12:00N 62°07' E 007°11'0 0.0
2019-Jul-15 11:30N 62°07' E 007°11'0 0.0
2019-Jul-15 11:00N 62°07' E 007°11'0 0.0
2019-Jul-15 10:30N 62°07' E 007°11'0 0.0
2019-Jul-15 10:00N 62°07' E 007°11'0 0.0
2019-Jul-15 09:30N 62°07' E 007°11'0 0.0
2019-Jul-15 09:00N 62°07' E 007°11'0 0.0
2019-Jul-15 08:30N 62°07' E 007°11'0 0.1
2019-Jul-15 08:00N 62°07' E 007°11'2 4.8
2019-Jul-15 07:30N 62°06' E 007°06'612.3
2019-Jul-15 06:59N 62°05' E 006°53'0 0.9
2019-Jul-15 06:28N 62°05' E 006°53'0 0.0
2019-Jul-15 05:55N 62°05' E 006°53'0 0.0
2019-Jul-15 05:25N 62°05' E 006°53'0 0.6
2019-Jul-15 05:00N 62°05' E 006°53'4 8.0
2019-Jul-15 04:30N 62°08' E 006°58'611.7
2019-Jul-15 04:00N 62°14' E 007°02'612.7
2019-Jul-15 03:30N 62°20' E 006°57'713.0
2019-Jul-15 03:00N 62°26' E 006°53'713.6
2019-Jul-15 02:30N 62°27' E 006°38'714.4
2019-Jul-15 02:00N 62°24' E 006°24'714.2
2019-Jul-15 01:30N 62°23' E 006°09'611.9
2019-Jul-15 01:00N 62°27' E 005°59'611.7
2019-Jul-15 00:30N 62°29' E 005°47'816.5
2019-Jul-15 00:00N 62°29' E 005°29'918.7
2019-Jul-14 23:30N 62°23' E 005°13'918.9
2019-Jul-14 23:00N 62°17' E 004°58'1018.9
2019-Jul-14 22:30N 62°11' E 004°41'918.5
2019-Jul-14 21:59N 62°05' E 004°25'918.9
2019-Jul-14 21:30N 61°58' E 004°13'1020.4
2019-Jul-14 21:00N 61°48' E 004°12'1020.4
2019-Jul-14 20:30N 61°38' E 004°11'1020.4
2019-Jul-14 20:00N 61°28' E 004°11'1120.4
2019-Jul-14 19:29N 61°17' E 004°11'1020.3
2019-Jul-14 19:00N 61°07' E 004°11'1020.3
2019-Jul-14 18:30N 60°57' E 004°11'1020.3
2019-Jul-14 18:00N 60°47' E 004°11'1019.9
2019-Jul-14 17:30N 60°37' E 004°10'1020.5
2019-Jul-14 17:00N 60°27' E 004°11'1020.2
2019-Jul-14 16:30N 60°17' E 004°11'1020.2
2019-Jul-14 16:00N 60°07' E 004°11'1020.4
2019-Jul-14 15:30N 59°56' E 004°11'1020.4
2019-Jul-14 15:00N 59°46' E 004°11'1020.5
2019-Jul-14 14:30N 59°36' E 004°11'1020.1
2019-Jul-14 14:00N 59°26' E 004°11'1019.8
2019-Jul-14 13:30N 59°16' E 004°11'1019.6
2019-Jul-14 13:00N 59°06' E 004°11'918.8
2019-Jul-14 12:30N 58°57' E 004°17'1019.0
2019-Jul-14 12:00N 58°50' E 004°28'1019.4
2019-Jul-14 11:29N 58°43' E 004°41'1019.7
2019-Jul-14 11:00N 58°36' E 004°54'1019.3
2019-Jul-14 10:30N 58°29' E 005°07'1019.6
2019-Jul-14 10:00N 58°22' E 005°21'1019.2
2019-Jul-14 09:30N 58°16' E 005°35'917.4
2019-Jul-14 09:00N 58°10' E 005°47'917.4
2019-Jul-14 08:30N 58°04' E 005°60'917.4
2019-Jul-14 08:00N 57°59' E 006°12'917.6
2019-Jul-14 07:30N 57°53' E 006°25'917.8
2019-Jul-14 07:00N 57°49' E 006°39'918.2
2019-Jul-14 06:30N 57°47' E 006°56'1019.7
2019-Jul-14 06:00N 57°47' E 007°14'1020.2
2019-Jul-14 05:30N 57°46' E 007°33'1019.7
2019-Jul-14 05:00N 57°46' E 007°51'1019.5
2019-Jul-14 04:30N 57°47' E 008°10'1019.4
2019-Jul-14 04:00N 57°47' E 008°28'1019.2
2019-Jul-14 03:30N 57°48' E 008°46'918.9
2019-Jul-14 03:00N 57°49' E 009°03'918.7
2019-Jul-14 02:30N 57°50' E 009°21'918.8
2019-Jul-14 02:00N 57°49' E 009°39'919.0
2019-Jul-14 01:30N 57°50' E 009°56'1019.2
2019-Jul-14 01:00N 57°50' E 010°14'918.6
2019-Jul-14 00:30N 57°50' E 010°32'917.7
2019-Jul-14 00:00N 57°48' E 010°48'918.4
2019-Jul-13 23:30N 57°43' E 011°02'919.0
2019-Jul-13 23:00N 57°36' E 011°14'1019.3
2019-Jul-13 22:30N 57°29' E 011°26'1019.0
2019-Jul-13 22:00N 57°20' E 011°32'1019.4
2019-Jul-13 21:30N 57°11' E 011°38'1019.0
2019-Jul-13 21:00N 57°01' E 011°44'1019.0
2019-Jul-13 20:30N 56°53' E 011°50'918.3
2019-Jul-13 20:00N 56°44' E 011°55'1018.0
2019-Jul-13 19:29N 56°35' E 011°59'1018.5
2019-Jul-13 18:55N 56°25' E 012°04'1318.3
2019-Jul-13 18:13N 56°14' E 012°16'418.7
2019-Jul-13 18:00N 56°12' E 012°22'1019.1
2019-Jul-13 17:30N 56°06' E 012°35'917.2
2019-Jul-13 17:00N 55°58' E 012°42'816.9
2019-Jul-13 16:30N 55°50' E 012°44'416.5
2019-Jul-13 16:15N 55°46' E 012°41'312.9
2019-Jul-13 16:00N 55°43' E 012°38'0 7.4
2019-Jul-13 16:00N 55°43' E 012°38'0 0.6
2019-Jul-13 15:26N 55°43' E 012°38'0 0.8
2019-Jul-13 15:25N 55°43' E 012°38'0 0.0
2019-Jul-13 14:58N 55°43' E 012°38'0 4.4
2019-Jul-13 14:57N 55°43' E 012°38'0 0.0
2019-Jul-13 14:30N 55°43' E 012°38'0 0.4
2019-Jul-13 14:28N 55°43' E 012°38'0 0.0
2019-Jul-13 14:00N 55°43' E 012°38'0 0.4
2019-Jul-13 13:58N 55°43' E 012°38'0 0.1
2019-Jul-13 13:28N 55°43' E 012°38'0 2.4
2019-Jul-13 13:28N 55°43' E 012°38'0 0.0
2019-Jul-13 12:58N 55°43' E 012°38'0 2.9
2019-Jul-13 12:57N 55°43' E 012°38'0 0.1
2019-Jul-13 12:30N 55°43' E 012°38'0 0.4
2019-Jul-13 12:28N 55°43' E 012°38'0 0.0
2019-Jul-13 11:58N 55°43' E 012°38'0 1.3
2019-Jul-13 11:58N 55°43' E 012°38'0 0.0
2019-Jul-13 11:28N 55°43' E 012°38'0 0.6
2019-Jul-13 11:25N 55°43' E 012°38'0 0.0
2019-Jul-13 10:58N 55°43' E 012°38'0 0.0
2019-Jul-13 10:28N 55°43' E 012°38'0 0.3
2019-Jul-13 10:24N 55°43' E 012°38'0 0.0
2019-Jul-13 10:00N 55°43' E 012°38'0 0.3
2019-Jul-13 09:58N 55°43' E 012°38'0 0.0
2019-Jul-13 09:30N 55°43' E 012°38'0 0.5
2019-Jul-13 09:28N 55°43' E 012°38'0 0.0
2019-Jul-13 09:00N 55°43' E 012°38'0 0.3
2019-Jul-13 08:58N 55°43' E 012°38'0 0.1
2019-Jul-13 08:30N 55°43' E 012°38'0 0.6
2019-Jul-13 08:28N 55°43' E 012°38'0 0.0
2019-Jul-13 07:58N 55°43' E 012°38'0 0.0
2019-Jul-13 07:28N 55°43' E 012°38'0 0.0
2019-Jul-13 06:58N 55°43' E 012°38'0 0.0
2019-Jul-13 06:28N 55°43' E 012°38'0 0.0
2019-Jul-13 06:00N 55°43' E 012°38'0 0.1
2019-Jul-13 05:30N 55°43' E 012°38'2 4.3
2019-Jul-13 05:00N 55°45' E 012°40'714.6
2019-Jul-13 04:30N 55°52' E 012°40'815.2
2019-Jul-13 04:00N 55°59' E 012°41'816.4
2019-Jul-13 03:30N 56°06' E 012°32'918.1
2019-Jul-13 03:00N 56°11' E 012°18'917.9
2019-Jul-13 02:30N 56°11' E 012°02'1118.5
2019-Jul-13 01:55N 56°08' E 011°43'818.4
2019-Jul-13 01:30N 56°07' E 011°29'918.1
2019-Jul-13 00:59N 56°08' E 011°13'1519.7
2019-Jul-13 00:12N 55°55' E 010°57'2417.8
2019-Jul-12 22:52N 55°31' E 010°52'718.6
2019-Jul-12 22:30N 55°26' E 010°59'918.4
2019-Jul-12 22:00N 55°17' E 011°04'917.3
2019-Jul-12 21:30N 55°08' E 011°03'918.1
2019-Jul-12 21:00N 54°59' E 011°01'918.8
2019-Jul-12 20:30N 54°51' E 010°53'1019.2
2019-Jul-12 20:00N 54°42' E 010°55'1020.7
2019-Jul-12 19:30N 54°37' E 011°10'1020.4
2019-Jul-12 19:00N 54°32' E 011°26'1020.4
2019-Jul-12 18:30N 54°27' E 011°41'1020.0
2019-Jul-12 18:00N 54°21' E 011°56'917.1
2019-Jul-12 17:30N 54°14' E 012°04'4 7.6
2019-Jul-12 16:59N 54°10' E 012°06'0 0.0
2019-Jul-12 16:00N 54°10' E 012°06'0 0.0
2019-Jul-12 14:42N 54°10' E 012°06'  

Dump ship's entire track history